Current Weather

Qaisumah

Qaisumah, Saudi Arabia (OEPA)

Report from: Monday, July 22, 2024 2:00 PM +03
Current time: Monday, July 22, 2024 2:27 PM +03

Nearby weather – Weather history – Daily summaries
Weather forecast

Temperature46.0°C (114.8°F)
Heat index41.6°C (106.9°F)
Dew point1.0°C (33.8°F)
Winds 12 kts (6.2 m/s, 13.8 mph) West-Northwest (300°)
Clouds Sky clear
Altimeter29.53 in.Hg (1000 mB)
Relative humidity7 %
Density altitude3,987 ft. (1,215 m)
Remarks Ceiling and visibility OK
No significant changes expected in the next two hours
Flight conditions Visual Meteorological Conditions
Raw dataOEPA 221100Z 30012KT CAVOK 46/01 Q1000 NOSIG
An error has occurred. This application may no longer respond until reloaded. Reload 🗙